Pagina principală
METAR-TAF:

METAR-TAF

Aeroporturi :

Ciudad Bolívar, Venezuela

Latitudine: 08-09N, longitudine: 063-33W, elevație: 43 m

Observații meteo curente

Raportul a fost făcut în urmă cu 3 ore și 13 de minute, la 13:03 UTC
Vânt 4 kt de la Est
Temperatură 26°C
Umiditate 84%
Presiune 1014 hPa

METAR: SVCB 011303Z AUTO 08004KT NCD 26/23 Q1014

Ora: 12:16 (16:16 UTC)


TAF: lipsă

Observații și prognoze meteo pentru peste 4.000 de aeroporturi (rapoarte METAR și TAF).

Stațiile disponibile sunt reprezentate pe hartă prin puncte galbene și roșii.

Țineți indicatorul mouse-ului pe punctul dorit pentru a vedea denumirea stației.

Apoi, faceți clic pentru a vedea observațiile și prognozele meteorologice.

Pentru a schimba harta: Pentru mărire, faceți clic pe butoanele verzi cu cruce neagră; pentru micșorare, pe butonul verde cu o liniuță; pentru hărți învecinate, pe săgețile verzi.


METAR-TAF: